Latest Weather Observations for Bickley

IDW60901

Issued at 9:51 pm WST Monday 26 September 2016 (issued every 10 minutes, with the page automatically refreshed every 10 minutes)

About weather observations | Map of Perth area stations | Latest observations for Perth area | Other Formats
Station Details ID: 009240 Name: BICKLEY Lat: -32.01 Lon: 116.14 Height: 384.0 m
Data from the previous 72 hours. | See also: Recent months at Bickley
Date/Time
WST
Temp
°C
App
Temp
°C
Dew
Point
°C
Rel
Hum
%
Delta-T
°C
Wind Press
QNH
hPa
Press
MSL
hPa
Rain since
9am
mm
Dir  Spd
km/h
Gust
km/h
Spd
kts
Gust
kts
26/09:30pm 11.4 8.9 9.8 90 0.8 WNW 13 22 7 12 - - 0.2
26/09:00pm 11.6 8.8 9.9 89 0.9 NW 15 20 8 11 - - 0.2
26/08:30pm 11.5 8.6 9.8 89 0.9 WNW 15 22 8 12 - - 0.2
26/08:00pm 11.6 8.8 9.9 89 0.9 WNW 15 22 8 12 - - 0.2
26/07:30pm 11.5 9.0 9.8 89 0.9 WNW 13 22 7 12 - - 0.2
26/07:00pm 11.4 8.9 9.7 89 0.9 WNW 13 22 7 12 - - 0.2
26/06:30pm 11.5 9.0 9.6 88 1.0 WNW 13 24 7 13 - - 0.2
26/06:00pm 11.6 8.5 8.8 83 1.4 W 15 26 8 14 - - 0.2
26/05:30pm 12.5 8.6 8.8 78 1.9 WNW 19 32 10 17 - - 0.0
26/05:00pm 12.6 8.5 8.7 77 2.0 WNW 20 33 11 18 - - 0.0
26/04:30pm 12.8 9.3 8.7 76 2.1 WNW 17 33 9 18 - - 0.0
26/04:00pm 13.1 9.5 8.4 73 2.4 WNW 17 28 9 15 - - 0.0
26/03:30pm 13.1 8.9 8.2 72 2.5 W 20 33 11 18 - - 0.0
26/03:00pm 13.1 9.1 8.2 72 2.5 W 19 30 10 16 - - 0.0
26/02:30pm 13.2 9.0 8.1 71 2.6 WNW 20 33 11 18 - - 0.0
26/02:00pm 13.4 10.1 8.0 70 2.7 WNW 15 30 8 16 - - 0.0
26/01:30pm 12.4 8.2 8.3 76 2.1 WNW 20 39 11 21 - - 0.0
26/01:00pm 12.5 8.1 7.6 72 2.4 WNW 20 33 11 18 - - 0.0
26/12:30pm 12.9 9.3 6.9 67 3.0 WNW 15 28 8 15 - - 0.0
26/12:00pm 13.7 8.8 7.0 64 3.3 WNW 22 35 12 19 - - 0.0
26/11:30am 14.0 9.4 6.4 60 3.7 W 20 33 11 18 - - 0.0
26/11:00am 14.0 9.4 6.6 61 3.6 WNW 20 35 11 19 - - 0.0
26/10:30am 12.6 8.2 7.3 70 2.6 WNW 20 32 11 17 - - 0.0
26/10:00am 11.9 7.4 6.2 68 2.7 W 19 35 10 19 - - 0.0
26/09:30am 12.0 7.6 6.7 70 2.6 NW 19 33 10 18 - - 0.0
26/09:00am 10.9 7.1 5.9 71 2.4 NW 15 26 8 14 - - 0.0
26/08:30am 10.5 6.7 5.7 72 2.3 NW 15 24 8 13 - - 0.0
26/08:00am 9.9 6.8 5.7 75 2.0 WNW 11 17 6 9 - - 0.0
26/07:30am 9.0 6.3 5.7 80 1.5 NW 9 13 5 7 - - 0.0
26/07:00am 7.7 4.5 5.0 83 1.2 NW 11 15 6 8 - - 0.0
26/06:30am 6.5 2.7 3.8 83 1.2 WNW 13 15 7 8 - - 0.0
26/06:00am 7.1 3.4 4.4 83 1.2 W 13 15 7 8 - - 0.0
26/05:30am 7.0 3.3 4.3 83 1.2 W 13 15 7 8 - - 0.0
26/05:00am 6.7 3.0 4.2 84 1.1 W 13 17 7 9 - - 0.0
26/04:30am 6.5 3.1 4.2 85 1.0 WSW 11 13 6 7 - - 0.0
26/04:00am 6.2 2.4 3.9 85 1.0 SW 13 15 7 8 - - 0.0
26/03:30am 5.8 2.3 3.6 86 0.9 SW 11 15 6 8 - - 0.0
26/03:00am 5.9 2.4 3.7 86 0.9 SSW 11 15 6 8 - - 0.0
26/02:30am 6.0 2.6 3.8 86 1.0 SSW 11 15 6 8 - - 0.0
26/02:00am 5.9 2.1 3.7 86 0.9 SSW 13 15 7 8 - - 0.0
26/01:30am 5.5 1.9 3.2 85 1.0 S 11 15 6 8 - - 0.0
26/01:00am 6.3 2.1 4.0 85 1.0 SSW 15 20 8 11 - - 0.0
26/12:30am 6.7 2.5 4.0 83 1.2 SSW 15 20 8 11 - - 0.0
26/12:00am 6.9 2.8 4.2 83 1.2 SSW 15 20 8 11 - - 0.0
 
Date/Time
WST
Temp
°C
App
Temp
°C
Dew
Point
°C
Rel
Hum
%
Delta-T
°C
Wind Press
QNH
hPa
Press
MSL
hPa
Rain since
9am
mm
Dir  Spd
km/h
Gust
km/h
Spd
kts
Gust
kts
25/11:30pm 6.9 2.8 4.2 83 1.2 SSW 15 20 8 11 - - 0.0
25/11:00pm 7.0 2.9 4.1 82 1.3 SSW 15 20 8 11 - - 0.0
25/10:30pm 6.9 3.1 3.7 80 1.4 SSW 13 20 7 11 - - 0.0
25/10:00pm 7.3 3.0 3.5 77 1.7 SSW 15 20 8 11 - - 0.0
25/09:30pm 7.6 2.9 3.3 74 1.9 SSW 17 22 9 12 - - 0.0
25/09:00pm 7.6 2.9 2.9 72 2.0 SW 17 22 9 12 - - 0.0
25/08:30pm 7.9 3.1 2.8 70 2.2 SSW 17 24 9 13 - - 0.0
25/08:00pm 8.3 3.5 2.8 68 2.4 SW 17 26 9 14 - - 0.0
25/07:30pm 8.6 3.9 3.2 69 2.4 SW 17 24 9 13 - - 0.0
25/07:00pm 9.0 4.4 3.6 69 2.4 SW 17 24 9 13 - - 0.0
25/06:30pm 9.5 5.3 3.9 68 2.5 SW 15 24 8 13 - - 0.0
25/06:00pm 10.5 6.0 4.0 64 2.9 SW 17 28 9 15 - - 0.0
25/05:30pm 11.3 6.4 4.3 62 3.2 SW 19 30 10 16 - - 0.0
25/05:00pm 12.9 8.7 3.6 53 4.3 SW 15 26 8 14 - - 0.0
25/04:30pm 13.7 9.8 3.5 50 4.7 WSW 13 24 7 13 - - 0.0
25/04:00pm 14.1 10.7 3.8 50 4.8 SW 11 20 6 11 - - 0.0
25/03:30pm 13.8 9.9 3.6 50 4.7 SW 13 24 7 13 - - 0.0
25/03:00pm 13.9 11.4 4.8 54 4.3 SSW 7 17 4 9 - - 0.0
25/02:30pm 13.6 9.9 4.2 53 4.4 WSW 13 22 7 12 - - 0.0
25/02:00pm 12.4 9.6 5.1 61 3.4 S 9 15 5 8 - - 0.0
25/01:30pm 12.9 10.6 5.6 61 3.5 S 7 11 4 6 - - 0.0
25/01:00pm 12.4 10.3 5.8 64 3.2 SSW 6 11 3 6 - - 0.0
25/12:30pm 12.5 9.9 6.1 65 3.1 SW 9 13 5 7 - - 0.0
25/12:00pm 12.8 10.7 5.9 63 3.3 SE 6 11 3 6 - - 0.0
25/11:30am 11.8 9.2 5.9 67 2.8 SSW 9 17 5 9 - - 0.0
25/11:00am 11.2 8.6 6.1 71 2.4 SE 9 17 5 9 - - 0.0
25/10:30am 11.3 7.8 7.4 77 1.9 SE 15 24 8 13 - - 0.0
25/10:00am 9.7 6.2 7.0 83 1.3 SSE 15 24 8 13 - - 0.0
25/09:30am 9.6 5.8 7.7 88 0.9 SSE 17 26 9 14 - - 0.0
25/09:00am 9.7 6.1 8.5 92 0.6 SE 17 30 9 16 - - 8.8
25/08:30am 8.8 5.5 8.0 95 0.4 SSE 15 32 8 17 - - 8.8
25/08:00am 8.2 4.4 7.4 95 0.4 SSE 17 32 9 17 - - 8.8
25/07:30am 7.9 4.0 7.1 95 0.4 SSE 17 28 9 15 - - 8.8
25/07:00am 8.2 5.9 7.4 95 0.4 S 9 13 5 7 - - 8.6
25/06:30am 8.1 5.8 7.3 95 0.4 SSW 9 11 5 6 - - 8.6
25/06:00am 7.8 5.4 7.1 95 0.3 WSW 9 11 5 6 - - 8.6
25/05:30am 7.6 5.5 6.7 94 0.4 WNW 7 9 4 5 - - 8.6
25/05:00am 7.9 5.9 7.0 94 0.4 NNW 7 9 4 5 - - 8.6
25/04:30am 7.9 5.9 7.0 94 0.4 N 7 9 4 5 - - 8.4
25/04:00am 8.2 6.2 7.3 94 0.4 WSW 7 9 4 5 - - 8.2
25/03:30am 8.0 6.1 6.9 93 0.5 W 6 9 3 5 - - 8.0
25/03:00am 7.8 5.3 6.7 93 0.5 W 9 11 5 6 - - 7.4
25/02:30am 7.8 5.3 6.6 92 0.6 WNW 9 20 5 11 - - 5.0
25/02:00am 7.7 5.2 6.5 92 0.6 NW 9 15 5 8 - - 3.0
25/01:30am 7.8 4.9 6.4 91 0.7 NW 11 15 6 8 - - 2.4
25/01:00am 7.7 5.7 6.2 90 0.7 NNW 6 11 3 6 - - 0.2
25/12:30am 7.8 5.8 6.1 89 0.8 SW 6 9 3 5 - - 0.2
25/12:00am 7.9 4.9 5.9 87 0.9 SW 11 15 6 8 - - 0.0
 
Date/Time
WST
Temp
°C
App
Temp
°C
Dew
Point
°C
Rel
Hum
%
Delta-T
°C
Wind Press
QNH
hPa
Press
MSL
hPa
Rain since
9am
mm
Dir  Spd
km/h
Gust
km/h
Spd
kts
Gust
kts
24/11:30pm 8.3 4.8 5.6 83 1.2 NW 13 24 7 13 - - 0.0
24/11:00pm 8.1 4.6 5.6 84 1.2 NNW 13 22 7 12 - - 0.0
24/10:30pm 8.0 4.5 5.6 85 1.1 N 13 20 7 11 - - 0.0
24/10:00pm 8.0 4.5 5.6 85 1.1 NNW 13 20 7 11 - - 0.0
24/09:30pm 8.0 4.5 5.5 84 1.1 NNW 13 17 7 9 - - 0.0
24/09:00pm 8.0 4.4 5.1 82 1.3 NNW 13 20 7 11 - - 0.0
24/08:30pm 7.5 3.7 4.1 79 1.5 NNW 13 17 7 9 - - 0.0
24/08:00pm 7.6 4.1 3.6 76 1.8 NW 11 15 6 8 - - 0.0
24/07:30pm 8.5 5.1 3.9 73 2.0 NW 11 15 6 8 - - 0.0
24/07:00pm 9.1 5.7 4.1 71 2.2 WNW 11 13 6 7 - - 0.0
24/06:30pm 10.1 6.8 4.3 67 2.6 WNW 11 17 6 9 - - 0.0
24/06:00pm 11.1 7.4 4.6 64 3.0 WNW 13 22 7 12 - - 0.0
24/05:30pm 11.4 8.1 4.4 62 3.2 WNW 11 20 6 11 - - 0.0
24/05:00pm 11.7 7.7 4.9 63 3.2 WNW 15 24 8 13 - - 0.0
24/04:30pm 12.1 7.7 4.8 61 3.4 WNW 17 26 9 14 - - 0.0
24/04:00pm 13.0 8.1 4.2 55 4.1 WNW 19 32 10 17 - - 0.0
24/03:30pm 12.6 7.4 3.3 53 4.2 WNW 20 35 11 19 - - 0.0
24/03:00pm 12.6 7.6 3.6 54 4.1 WNW 19 32 10 17 - - 0.0
24/02:30pm 12.3 8.6 4.3 58 3.7 WNW 13 28 7 15 - - 0.0
24/02:00pm 12.3 7.7 3.8 56 3.9 WNW 17 28 9 15 - - 0.0
24/01:30pm 12.2 8.7 3.7 56 3.9 W 11 20 6 11 - - 0.0
24/01:00pm 12.4 7.7 3.4 54 4.1 NW 17 28 9 15 - - 0.0
24/12:30pm 12.0 8.2 3.8 57 3.7 WNW 13 24 7 13 - - 0.0
24/12:00pm 11.4 7.5 3.2 57 3.7 NW 13 24 7 13 - - 0.0
24/11:30am 12.0 8.7 4.7 61 3.4 NNW 11 24 6 13 - - 0.0
24/11:00am 10.8 8.4 4.3 64 3.0 NNW 6 13 3 7 - - 0.0
24/10:30am 8.8 5.7 3.4 69 2.4 NW 9 13 5 7 - - 0.0
24/10:00am 8.9 6.1 3.1 67 2.5 NW 7 13 4 7 - - 0.0
24/09:30am 8.8 6.6 3.2 68 2.5 NNE 4 7 2 4 - - 0.0
24/09:00am 8.9 6.1 3.3 68 2.5 NNE 7 11 4 6 - - 0.4
24/08:30am 7.8 5.0 2.1 67 2.4 NE 6 11 3 6 - - 0.4
24/08:00am 7.8 4.5 2.5 69 2.3 ENE 9 13 5 7 - - 0.4
24/07:30am 7.3 4.5 3.4 76 1.7 ENE 7 11 4 6 - - 0.4
24/07:00am 6.2 3.4 3.2 81 1.3 E 7 9 4 5 - - 0.4
24/06:30am 5.4 2.5 2.6 82 1.2 NE 7 9 4 5 - - 0.4
24/06:00am 4.8 1.5 2.2 83 1.1 NE 9 11 5 6 - - 0.4
24/05:30am 5.1 1.8 2.6 84 1.0 NNE 9 11 5 6 - - 0.4
24/05:00am 4.6 1.2 2.1 84 1.0 NE 9 11 5 6 - - 0.4
24/04:30am 4.2 1.1 1.4 82 1.1 E 7 11 4 6 - - 0.4
24/04:00am 4.3 0.8 1.3 81 1.2 ESE 9 11 5 6 - - 0.4
24/03:30am 4.9 1.2 2.3 83 1.1 SE 11 13 6 7 - - 0.4
24/03:00am 4.6 1.2 2.0 83 1.1 SE 9 11 5 6 - - 0.4
24/02:30am 4.5 1.1 2.0 84 1.0 SSE 9 13 5 7 - - 0.4
24/02:00am 4.6 0.9 2.1 84 1.0 SSE 11 15 6 8 - - 0.4
24/01:30am 4.7 1.0 2.2 84 1.0 SSE 11 15 6 8 - - 0.4
24/01:00am 5.0 1.4 2.7 85 1.0 SSE 11 17 6 9 - - 0.4
24/12:30am 4.5 0.8 2.4 86 0.9 SSE 11 13 6 7 - - 0.4
24/12:00am 4.7 1.0 2.4 85 0.9 SSE 11 13 6 7 - - 0.4
 
Date/Time
WST
Temp
°C
App
Temp
°C
Dew
Point
°C
Rel
Hum
%
Delta-T
°C
Wind Press
QNH
hPa
Press
MSL
hPa
Rain since
9am
mm
Dir  Spd
km/h
Gust
km/h
Spd
kts
Gust
kts
23/11:30pm 4.9 1.6 2.6 85 1.0 S 9 13 5 7 - - 0.4
23/11:00pm 4.7 1.4 2.2 84 1.0 SSW 9 13 5 7 - - 0.4
23/10:30pm 5.0 1.3 2.5 84 1.0 SSW 11 17 6 9 - - 0.4
23/10:00pm 5.2 1.6 2.7 84 1.0 SSW 11 15 6 8 - - 0.4

Latest Capital City Observations: Canberra | Sydney | Melbourne | Brisbane | Adelaide | Perth | Hobart | Darwin

Other Formats:

Comma delimited format used in spreadsheet applications
http://www.bom.gov.au/fwo/IDW60901/IDW60901.95610.axf

JavaScript Object Notation format (JSON) in row-major order
http://www.bom.gov.au/fwo/IDW60901/IDW60901.95610.json